SBOSBO BOD / LFBD
Speedbird OnlineSpeedbird Online BOD / LFBD

Bordeaux-Mérignac Airport
00:19 0°C

Location Bordeaux, France
Latitude: 44.828300476100004
Longitude: -0.715556025505
Web Airport Website | Wikipedia
Altitude 49 Meter / 162 Feet
Distance 745 KM / 463 Miles
from London.
Time Zone UTC +1 hours (Europe/Paris)
Codes IATA: BOD
ICAO: LFBD
Currency £1 equals EUR 1.13
Runways
RunwayLength (m)Surface
053100Asphalt
112415Asphalt
233100Asphalt
292415Asphalt
Radio
TypeDescriptionFrequency
APPAQUITAINE APP118.6
ARRAPP121.2
ATISATIS131.15
GNDGND121.9
INFOAQUITAINE INFO120.575
OPSOPNS143.175
TWRTWR118.3
Live ATC
METAR LFBD 081430Z AUTO 04005KT 360V070 CAVOK 12/M02 Q1029 NOSIG
TAF TAF LFBD 081100Z 0812/0918 08005KT CAVOK TX12/0813Z TNM02/0906Z PROB30 0900/0908 3000 BR
Weather As Of 09 Feb 2023 00:19
Description Clear sky
Wind 0 km/h from North (0°)
Cloud Cover 0%
Precipitation Rain: none, Snow: none
Sunrise 08:12
Sunset 18:21
Lounges Salon des Vignobles , Terminal A
Rotations During the last 90 days there were
102 flights from LGW
101 flights to LGW



Support Speedbird Online

© 2017-2023 Speedbird Online